Time;durP1;ratioP1;P1;durP2;ratioP2;P2;SDS_P1;SDS_P2;PMS_P1;PMS_P2;Temp;Humidity;BMP_temperature;BMP_pressure;BME280_temperature;BME280_humidity;BME280_pressure;Samples;Min_cycle;Max_cycle;Signal;HPM_P1;HPM_P2
2022/05/31 00:01:59;;;;;;;3.25;2.35;;;;;;;8.83;100.00;101578.53;4997967;28;20435;-74
2022/05/31 00:04:25;;;;;;;2.20;2.00;;;;;;;9.22;100.00;101666.94;4992540;28;20214;-74
2022/05/31 00:06:50;;;;;;;2.60;1.80;;;;;;;8.86;100.00;101644.25;4977517;28;20466;-74
2022/05/31 00:09:16;;;;;;;2.17;1.90;;;;;;;8.23;100.00;101544.94;4997357;28;20613;-74
2022/05/31 00:11:42;;;;;;;2.23;1.97;;;;;;;8.83;100.00;101630.19;4992979;28;20185;-74
2022/05/31 00:14:09;;;;;;;2.17;1.93;;;;;;;9.20;100.00;101660.94;4992359;28;20241;-74
2022/05/31 00:16:34;;;;;;;3.67;1.90;;;;;;;9.17;100.00;101663.97;4994557;28;20444;-74
2022/05/31 00:19:00;;;;;;;2.20;2.03;;;;;;;9.08;100.00;101635.50;4996592;28;21062;-74
2022/05/31 00:21:36;;;;;;;2.40;2.20;;;;;;;9.09;100.00;101636.38;4990384;28;20580;-74
2022/05/31 00:24:03;;;;;;;2.20;2.00;;;;;;;9.20;100.00;101658.28;4992392;28;20177;-74
2022/05/31 00:26:28;;;;;;;2.37;2.00;;;;;;;9.00;100.00;101630.19;4992386;28;20458;-74
2022/05/31 00:28:53;;;;;;;3.00;1.87;;;;;;;8.91;100.00;101607.97;4993060;28;20527;-74
2022/05/31 00:31:19;;;;;;;2.77;2.57;;;;;;;8.89;100.00;101593.09;4995302;28;20644;-74
2022/05/31 00:33:44;;;;;;;2.37;2.17;;;;;;;8.70;100.00;101554.13;4995391;28;20191;-74
2022/05/31 00:36:10;;;;;;;2.33;2.13;;;;;;;8.22;100.00;101507.69;4998047;28;20277;-74
2022/05/31 00:38:35;;;;;;;3.20;2.00;;;;;;;9.26;100.00;101659.44;4998503;28;20182;-74
2022/05/31 00:41:24;;;;;;;2.20;2.00;;;;;;;8.74;100.00;101576.88;4995892;28;20643;-74
2022/05/31 00:44:01;;;;;;;3.83;1.90;;;;;;;9.36;100.00;101661.91;4991278;28;20235;-74
2022/05/31 00:46:49;;;;;;;2.50;2.30;;;;;;;9.33;100.00;101667.63;4982997;28;20444;-74
2022/05/31 00:49:35;;;;;;;2.10;2.00;;;;;;;8.95;100.00;101611.13;4993312;28;20500;-74
2022/05/31 00:52:12;;;;;;;2.80;1.70;;;;;;;9.07;100.00;101636.53;4989042;28;20436;-74
2022/05/31 00:54:45;;;;;;;2.87;1.97;;;;;;;9.28;100.00;101644.84;4995521;28;20469;-73
2022/05/31 00:57:12;;;;;;;2.23;2.03;;;;;;;9.07;100.00;101620.47;4991835;28;20527;-73
2022/05/31 00:59:45;;;;;;;4.00;1.90;;;;;;;9.47;100.00;101661.56;4993778;28;20480;-74
2022/05/31 01:02:11;;;;;;;2.17;1.97;;;;;;;8.66;100.00;101563.50;4987908;28;20579;-74
2022/05/31 01:04:50;;;;;;;3.00;2.67;;;;;;;8.98;100.00;101595.56;4991664;28;20439;-73
2022/05/31 01:07:16;;;;;;;2.80;2.17;;;;;;;9.06;100.00;101634.88;4991394;28;20443;-74
2022/05/31 01:09:42;;;;;;;2.50;2.30;;;;;;;8.51;100.00;101545.47;4994611;28;20521;-74
2022/05/31 01:12:08;;;;;;;2.20;1.87;;;;;;;8.69;100.00;101568.53;4995978;28;20447;-73
2022/05/31 01:14:35;;;;;;;2.37;1.90;;;;;;;9.25;100.00;101650.53;4996461;28;20214;-73
2022/05/31 01:17:04;;;;;;;2.70;2.50;;;;;;;9.11;100.00;101629.81;4993251;28;20445;-74
2022/05/31 01:22:16;;;;;;;2.90;2.50;;;;;;;8.94;100.00;101617.47;4994413;28;20434;-74
2022/05/31 01:24:55;;;;;;;2.70;2.50;;;;;;;8.93;100.00;101630.00;4999019;28;20958;-74
2022/05/31 01:27:49;;;;;;;3.93;2.73;;;;;;;8.35;100.00;101540.09;4994576;28;20866;-75
2022/05/31 01:30:15;;;;;;;2.43;1.93;;;;;;;8.91;100.00;101629.38;4975619;28;20524;-74
2022/05/31 01:32:46;;;;;;;2.37;2.17;;;;;;;9.04;100.00;101663.63;4995171;28;20444;-74
2022/05/31 01:35:22;;;;;;;4.13;2.63;;;;;;;9.06;100.00;101656.28;4990806;28;20197;-74
2022/05/31 01:38:05;;;;;;;2.17;1.97;;;;;;;8.75;100.00;101586.56;4992903;28;20796;-74
2022/05/31 01:40:55;;;;;;;5.43;2.30;;;;;;;9.07;100.00;101663.28;4993321;28;20474;-74
2022/05/31 01:43:22;;;;;;;2.60;2.40;;;;;;;8.95;100.00;101653.94;4998437;28;20512;-74
2022/05/31 01:46:01;;;;;;;2.30;2.10;;;;;;;9.18;100.00;101670.97;4995044;28;20909;-73
2022/05/31 01:48:30;;;;;;;3.07;2.50;;;;;;;9.09;100.00;101612.28;4994921;28;20865;-73
2022/05/31 01:50:57;;;;;;;2.80;2.60;;;;;;;9.08;100.00;101643.53;4994313;28;20487;-74
2022/05/31 01:53:23;;;;;;;2.60;2.40;;;;;;;9.30;100.00;101651.91;4991868;28;20440;-73
2022/05/31 01:55:49;;;;;;;4.10;2.90;;;;;;;8.68;100.00;101569.50;4997298;28;20504;-73
2022/05/31 01:58:21;;;;;;;3.00;2.77;;;;;;;9.30;100.00;101678.66;4991852;28;20484;-74
2022/05/31 02:00:48;;;;;;;3.07;2.80;;;;;;;9.18;100.00;101644.22;4992288;28;20479;-73
2022/05/31 02:03:18;;;;;;;2.80;2.57;;;;;;;9.40;100.00;101664.09;4997002;28;20535;-74
2022/05/31 02:05:45;;;;;;;3.00;2.70;;;;;;;8.58;100.00;101549.13;4994184;28;20439;-74
2022/05/31 02:08:10;;;;;;;3.00;2.67;;;;;;;8.56;100.00;101547.63;4997204;28;20449;-74
2022/05/31 02:10:36;;;;;;;3.20;2.90;;;;;;;8.82;100.00;101587.56;4993858;28;20473;-74
2022/05/31 02:13:01;;;;;;;2.57;2.37;;;;;;;8.76;100.00;101550.78;4998481;28;20193;-74
2022/05/31 02:15:27;;;;;;;2.97;2.73;;;;;;;9.37;100.00;101652.88;4993264;28;20327;-74
2022/05/31 02:17:52;;;;;;;3.03;2.80;;;;;;;9.32;100.00;101645.38;4996752;28;20189;-74
2022/05/31 02:20:18;;;;;;;3.80;2.93;;;;;;;9.26;100.00;101643.38;4994022;28;20240;-74
2022/05/31 02:22:43;;;;;;;3.50;2.73;;;;;;;8.23;100.00;101496.81;4993175;28;20237;-74
2022/05/31 02:25:09;;;;;;;2.70;2.30;;;;;;;8.53;100.00;101539.94;4995751;28;20714;-74
2022/05/31 02:27:35;;;;;;;2.97;2.70;;;;;;;8.31;100.00;101541.44;4998960;28;20586;-74
2022/05/31 02:30:01;;;;;;;3.27;2.50;;;;;;;8.83;100.00;101589.25;4995576;23;21649;-81
2022/05/31 02:32:26;;;;;;;4.03;2.93;;;;;;;9.23;100.00;101654.44;4978963;28;20193;-81
2022/05/31 02:34:52;;;;;;;3.00;2.70;;;;;;;8.74;100.00;101576.88;4982504;28;20528;-81
2022/05/31 02:37:19;;;;;;;3.50;2.40;;;;;;;8.63;100.00;101550.47;4971023;28;20651;-81
2022/05/31 02:39:45;;;;;;;3.23;2.70;;;;;;;9.01;100.00;101627.34;4987029;28;20216;-81
2022/05/31 02:42:13;;;;;;;2.60;2.40;;;;;;;9.34;100.00;101653.22;4970595;28;20468;-81
2022/05/31 02:44:39;;;;;;;3.07;2.80;;;;;;;8.68;100.00;101554.31;4987400;28;20444;-81
2022/05/31 02:47:07;;;;;;;3.77;2.30;;;;;;;9.18;100.00;101646.06;4970843;28;20441;-81
2022/05/31 02:49:36;;;;;;;3.47;2.50;;;;;;;9.20;100.00;101658.28;4981945;28;20445;-81
2022/05/31 02:52:02;;;;;;;2.63;2.43;;;;;;;9.07;100.00;101611.63;4968449;28;20460;-81
2022/05/31 02:54:28;;;;;;;3.17;2.73;;;;;;;8.46;100.00;101504.19;4984992;28;20472;-81
2022/05/31 02:56:53;;;;;;;2.70;2.50;;;;;;;8.06;100.00;101455.06;4984623;28;20710;-81
2022/05/31 02:59:19;;;;;;;2.90;2.60;;;;;;;8.98;100.00;101605.44;4969565;28;20650;-81
2022/05/31 03:01:45;;;;;;;4.80;2.93;;;;;;;8.19;100.00;101478.59;4985489;28;20252;-81
2022/05/31 03:04:12;;;;;;;3.40;2.97;;;;;;;9.25;100.00;101649.72;4982504;28;20186;-87
2022/05/31 03:06:38;;;;;;;3.10;2.90;;;;;;;9.11;100.00;101634.34;4967386;28;20445;-83
2022/05/31 03:09:04;;;;;;;3.10;2.80;;;;;;;9.00;100.00;101598.09;4987092;28;21368;-83
2022/05/31 03:11:30;;;;;;;3.30;2.63;;;;;;;9.33;100.00;101651.56;4984315;23;20909;-85
2022/05/31 03:14:09;;;;;;;2.60;2.40;;;;;;;9.12;100.00;101631.50;4984397;28;20467;-82
2022/05/31 03:16:38;;;;;;;2.97;2.70;;;;;;;9.07;100.00;101620.47;4985567;28;20268;-81
2022/05/31 03:19:10;;;;;;;3.73;2.87;;;;;;;8.88;100.00;101573.53;4985299;28;20483;-82
2022/05/31 03:21:40;;;;;;;2.87;2.20;;;;;;;8.99;100.00;101585.69;4985533;28;20456;-82
2022/05/31 03:24:11;;;;;;;3.23;2.53;;;;;;;8.92;100.00;101579.38;4985878;28;20455;-81
2022/05/31 03:26:38;;;;;;;2.97;2.73;;;;;;;9.30;100.00;101654.56;4995907;28;20463;-82
2022/05/31 03:29:04;;;;;;;2.57;2.37;;;;;;;9.23;100.00;101617.78;4985609;28;20459;-83
2022/05/31 03:31:30;;;;;;;2.93;2.60;;;;;;;8.92;100.00;101598.91;4984044;28;20464;-83
2022/05/31 03:33:57;;;;;;;3.60;2.73;;;;;;;9.07;100.00;101616.97;4984529;28;20448;-82
2022/05/31 03:36:23;;;;;;;5.97;3.30;;;;;;;7.54;100.00;101369.94;4981154;28;20264;-82
2022/05/31 03:38:48;;;;;;;2.93;2.73;;;;;;;8.87;100.00;101545.09;4983887;28;21013;-83
2022/05/31 03:41:13;;;;;;;4.30;3.13;;;;;;;8.97;100.00;101593.06;4986821;28;20764;-82
2022/05/31 03:43:39;;;;;;;3.00;2.70;;;;;;;8.96;100.00;101583.34;4985064;28;20189;-82
2022/05/31 03:46:10;;;;;;;4.47;2.80;;;;;;;8.71;100.00;101543.28;4985708;28;20210;-82
2022/05/31 03:48:35;;;;;;;2.73;2.53;;;;;;;9.26;100.00;101613.94;4994940;28;20587;-80
2022/05/31 03:51:04;;;;;;;3.50;3.20;;;;;;;9.59;100.00;101637.91;4985746;28;20464;-81
2022/05/31 03:53:30;;;;;;;3.23;2.93;;;;;;;9.74;100.00;101646.91;4984192;28;20189;-82
2022/05/31 03:55:56;;;;;;;3.27;2.90;;;;;;;9.52;100.00;101586.91;4989371;28;20488;-81
2022/05/31 03:58:22;;;;;;;2.80;2.60;;;;;;;9.48;100.00;101573.00;4984370;28;20523;-81
2022/05/31 04:00:47;;;;;;;3.53;2.73;;;;;;;9.77;100.00;101602.84;4985385;28;20209;-82
2022/05/31 04:03:14;;;;;;;2.37;2.17;;;;;;;9.72;100.00;101582.78;4986255;28;20881;-81
2022/05/31 04:05:39;;;;;;;3.57;3.27;;;;;;;10.02;100.00;101628.53;4985323;28;21860;-81
2022/05/31 04:08:08;;;;;;;3.53;3.00;;;;;;;10.07;100.00;101626.16;4985682;28;20449;-81
2022/05/31 04:10:34;;;;;;;3.50;2.90;;;;;;;9.52;100.00;101554.75;4985315;28;20213;-82
2022/05/31 04:13:00;;;;;;;3.80;2.90;;;;;;;10.03;100.00;101627.50;4986401;28;20481;-83
2022/05/31 04:15:27;;;;;;;3.23;2.63;;;;;;;9.23;100.00;101489.28;4983915;28;21078;-84
2022/05/31 04:17:52;;;;;;;3.50;2.80;;;;;;;9.91;100.00;101586.84;4981340;28;20685;-83
2022/05/31 04:20:18;;;;;;;3.07;2.77;;;;;;;9.55;100.00;101532.97;4986075;28;20496;-83
2022/05/31 04:22:43;;;;;;;2.97;2.67;;;;;;;10.09;100.00;101632.16;4984383;28;20277;-83
2022/05/31 04:25:08;;;;;;;3.27;2.93;;;;;;;9.99;100.00;101594.03;4987562;28;20223;-83
2022/05/31 04:27:34;;;;;;;4.27;2.90;;;;;;;10.32;100.00;101631.38;4986248;28;20186;-83
2022/05/31 04:30:02;;;;;;;5.90;3.80;;;;;;;10.22;100.00;101599.41;4983611;28;20293;-83
2022/05/31 04:32:27;;;;;;;3.50;2.87;;;;;;;10.25;100.00;101617.00;4985118;28;20201;-83
2022/05/31 04:34:53;;;;;;;5.50;3.27;;;;;;;10.38;100.00;101636.03;4982821;28;20980;-83
2022/05/31 04:37:19;;;;;;;4.10;3.13;;;;;;;9.59;100.00;101485.25;4987228;28;20225;-84
2022/05/31 04:39:45;;;;;;;4.97;3.23;;;;;;;9.85;100.00;101542.00;4987093;28;20193;-83
2022/05/31 04:42:11;;;;;;;6.63;3.53;;;;;;;10.37;100.00;101605.69;4985652;28;20444;-81
2022/05/31 04:44:36;;;;;;;4.50;3.37;;;;;;;9.98;100.00;101516.47;4983720;28;20214;-83
2022/05/31 04:47:02;;;;;;;3.43;3.13;;;;;;;9.93;100.00;101517.03;4984632;28;20281;-83
2022/05/31 04:49:28;;;;;;;3.33;3.03;;;;;;;10.57;100.00;101638.25;4988398;28;20197;-82
2022/05/31 04:51:54;;;;;;;4.07;3.60;;;;;;;9.98;100.00;101522.69;4986712;28;20557;-83
2022/05/31 04:54:20;;;;;;;3.13;2.83;;;;;;;9.98;100.00;101535.22;4989415;28;21105;-83
2022/05/31 04:56:46;;;;;;;3.30;2.83;;;;;;;9.95;100.00;101523.03;4989115;28;20241;-83
2022/05/31 04:59:12;;;;;;;3.17;2.87;;;;;;;9.31;100.00;101393.88;4988854;28;21125;-83
2022/05/31 05:01:38;;;;;;;3.47;3.17;;;;;;;10.61;100.00;101612.72;4986849;28;20705;-83
2022/05/31 05:04:04;;;;;;;2.87;2.60;;;;;;;10.18;100.00;101549.81;4987639;28;20437;-83
2022/05/31 05:06:30;;;;;;;3.67;3.37;;;;;;;10.06;100.00;101508.38;4984627;28;20441;-83
2022/05/31 05:08:56;;;;;;;4.40;3.30;;;;;;;10.19;100.00;101538.94;4988712;28;20940;-83
2022/05/31 05:11:23;;;;;;;3.73;2.90;;;;;;;10.77;100.00;101611.75;4987419;28;20213;-84
2022/05/31 05:13:49;;;;;;;2.93;2.60;;;;;;;10.70;100.00;101613.47;4986241;28;20193;-83
2022/05/31 05:16:16;;;;;;;3.50;3.20;;;;;;;10.49;100.00;101584.66;4987310;28;20952;-84
2022/05/31 05:18:42;;;;;;;3.40;3.10;;;;;;;9.83;100.00;101460.97;4984065;28;20449;-84
2022/05/31 05:21:10;;;;;;;3.07;2.77;;;;;;;10.73;100.00;101618.53;4989047;28;20461;-87
2022/05/31 05:23:37;;;;;;;2.93;2.70;;;;;;;10.90;100.00;101610.31;4982799;28;20210;-86
2022/05/31 05:26:02;;;;;;;3.10;2.60;;;;;;;10.61;100.00;101571.66;4984200;28;20944;-86
2022/05/31 05:31:19;;;;;;;3.87;3.00;;;;;;;10.97;100.00;101593.31;4988928;28;20468;-85
2022/05/31 05:33:44;;;;;;;4.07;2.60;;;;;;;10.31;100.00;101482.25;4983602;28;20452;-83
2022/05/31 05:36:10;;;;;;;2.97;2.67;;;;;;;10.96;100.00;101591.59;4983710;28;20461;-83
2022/05/31 05:38:35;;;;;;;4.90;2.97;;;;;;;9.22;100.00;101345.72;4986718;28;20650;-84
2022/05/31 05:41:01;;;;;;;5.27;2.30;;;;;;;10.95;100.00;101602.53;4988696;28;20268;-84
2022/05/31 05:43:27;;;;;;;3.40;2.80;;;;;;;10.34;100.00;101506.84;4989951;28;20213;-83
2022/05/31 05:45:52;;;;;;;3.47;2.80;;;;;;;10.39;100.00;101500.94;4987933;28;20917;-84
2022/05/31 05:48:18;;;;;;;3.17;2.57;;;;;;;11.12;100.00;101605.91;4991354;28;20277;-83
2022/05/31 05:50:44;;;;;;;2.30;2.10;;;;;;;11.12;100.00;101605.91;4986300;28;20315;-85
2022/05/31 05:53:10;;;;;;;6.00;2.60;;;;;;;10.54;100.00;101507.16;4986102;28;20684;-84
2022/05/31 05:55:38;;;;;;;3.60;2.60;;;;;;;11.08;100.00;101598.22;4989483;28;20344;-83
2022/05/31 05:58:08;;;;;;;2.80;2.50;;;;;;;11.15;100.00;101608.22;4988030;28;20449;-83
2022/05/31 06:00:37;;;;;;;3.20;2.90;;;;;;;10.94;100.00;101590.16;4989033;28;20464;-84
2022/05/31 06:03:32;;;;;;;3.37;2.70;;;;;;;10.94;100.00;101587.47;4987178;28;20445;-83
2022/05/31 06:05:59;;;;;;;4.70;3.00;;;;;;;10.74;100.00;101568.38;4985958;28;20880;-83
2022/05/31 06:08:32;;;;;;;3.10;2.90;;;;;;;11.08;100.00;101622.38;4989335;28;20556;-83
2022/05/31 06:11:17;;;;;;;5.87;3.43;;;;;;;11.12;100.00;101617.47;4988383;28;20560;-84
2022/05/31 06:13:49;;;;;;;5.87;2.73;;;;;;;10.68;100.00;101527.00;4984522;28;20434;-84
2022/05/31 06:16:18;;;;;;;2.80;2.60;;;;;;;11.07;100.00;101563.50;4987542;28;20469;-84
2022/05/31 06:18:50;;;;;;;3.50;2.60;;;;;;;10.97;100.00;101539.63;4985220;28;20444;-83
2022/05/31 06:21:20;;;;;;;5.03;2.80;;;;;;;11.22;100.00;101595.72;4997813;28;20487;-83
2022/05/31 06:23:48;;;;;;;3.10;2.80;;;;;;;11.42;100.00;101621.00;4982574;28;20447;-84
2022/05/31 06:26:14;;;;;;;3.40;3.10;;;;;;;11.43;100.00;101605.75;4987188;28;20921;-84
2022/05/31 06:28:39;;;;;;;3.00;2.70;;;;;;;11.06;100.00;101530.44;4982222;28;20491;-84
2022/05/31 06:31:05;;;;;;;3.27;2.90;;;;;;;10.73;100.00;101470.94;4986941;28;20235;-83
2022/05/31 06:33:30;;;;;;;4.50;3.30;;;;;;;11.50;100.00;101587.84;4984646;28;20186;-83
2022/05/31 06:35:58;;;;;;;3.37;2.20;;;;;;;10.99;100.00;101515.25;4982730;28;20213;-83
2022/05/31 06:38:23;;;;;;;2.73;2.53;;;;;;;11.11;100.00;101523.69;4982801;28;20196;-84
2022/05/31 06:40:52;;;;;;;3.10;2.90;;;;;;;11.31;100.00;101539.06;4983712;28;20477;-85
2022/05/31 06:43:17;;;;;;;3.30;2.97;;;;;;;11.18;100.00;101498.59;4983677;28;20192;-80
2022/05/31 06:45:42;;;;;;;2.70;2.50;;;;;;;11.83;100.00;101600.84;4983446;28;20806;-81
2022/05/31 06:48:08;;;;;;;3.67;3.07;;;;;;;11.22;100.00;101510.63;4983901;28;20236;-83
2022/05/31 06:50:34;;;;;;;2.80;2.60;;;;;;;11.28;100.00;101500.97;4987300;28;20643;-83
2022/05/31 06:58:28;;;;;;;3.40;2.87;;;;;;;11.94;100.00;101581.59;4983827;28;20459;-86
2022/05/31 07:00:53;;;;;;;2.87;2.57;;;;;;;12.16;100.00;101594.03;4985613;28;20461;-84
2022/05/31 07:03:18;;;;;;;2.60;2.13;;;;;;;11.42;100.00;101467.88;4982144;28;20198;-83
2022/05/31 07:05:44;;;;;;;4.00;2.90;;;;;;;11.88;100.00;101536.66;4985351;28;20186;-84
2022/05/31 07:08:10;;;;;;;3.53;3.07;;;;;;;12.41;100.00;101590.97;4985352;28;21115;-87
2022/05/31 07:10:35;;;;;;;4.37;2.97;;;;;;;12.32;100.00;101571.44;4987767;28;20698;-85
2022/05/31 07:13:00;;;;;;;3.97;2.97;;;;;;;11.61;100.00;101474.53;4986821;28;20190;-85
2022/05/31 07:15:26;;;;;;;4.57;2.87;;;;;;;12.29;100.00;101552.16;4987975;28;20215;-84
2022/05/31 07:17:51;;;;;;;3.00;2.70;;;;;;;12.31;100.00;101585.09;4988245;28;20230;-84
2022/05/31 07:20:17;;;;;;;4.03;3.17;;;;;;;11.92;100.00;101503.84;4982454;28;20209;-84
2022/05/31 07:22:42;;;;;;;2.77;2.57;;;;;;;12.18;100.00;101519.38;4985721;28;20190;-85
2022/05/31 07:25:09;;;;;;;3.93;3.13;;;;;;;12.51;100.00;101580.72;4990213;28;20185;-84
2022/05/31 07:27:35;;;;;;;3.20;2.90;;;;;;;12.00;100.00;101492.09;4986529;28;20662;-85
2022/05/31 07:30:01;;;;;;;4.13;2.70;;;;;;;12.49;100.00;101539.72;4983770;28;20492;-85
2022/05/31 07:32:27;;;;;;;3.77;2.80;;;;;;;12.34;100.00;101507.50;4987375;28;20185;-85
2022/05/31 07:34:52;;;;;;;2.90;2.67;;;;;;;12.39;100.00;101507.78;4986899;28;20969;-85
2022/05/31 07:37:17;;;;;;;4.20;2.43;;;;;;;12.39;100.00;101518.53;4981816;28;20627;-85
2022/05/31 07:39:43;;;;;;;3.93;2.43;;;;;;;12.44;100.00;101526.84;5000607;28;20225;-85
2022/05/31 07:42:09;;;;;;;2.73;2.50;;;;;;;11.97;100.00;101412.66;4985403;28;20633;-85
2022/05/31 07:44:35;;;;;;;4.30;2.47;;;;;;;12.88;100.00;101546.44;4985303;28;20736;-85
2022/05/31 07:47:01;;;;;;;3.10;2.80;;;;;;;12.36;100.00;101465.13;4983335;28;20473;-86
2022/05/31 07:49:26;;;;;;;3.00;2.27;;;;;;;12.92;100.00;101554.94;4986889;28;20471;-86
2022/05/31 07:51:52;;;;;;;2.83;2.63;;;;;;;12.91;100.00;101531.75;4983780;28;20216;-86
2022/05/31 07:54:17;;;;;;;3.00;2.80;;;;;;;12.60;100.00;101508.75;4988202;28;20209;-84
2022/05/31 07:56:43;;;;;;;3.10;2.53;;;;;;;12.97;100.00;101563.28;4995223;28;20217;-85
2022/05/31 07:59:09;;;;;;;3.27;3.07;;;;;;;13.04;100.00;101547.97;4983447;28;20189;-84
2022/05/31 08:01:35;;;;;;;3.60;2.60;;;;;;;13.15;100.00;101539.34;4980635;28;20252;-82
2022/05/31 08:04:00;;;;;;;3.67;3.30;;;;;;;13.18;100.00;101546.22;4988632;28;20456;-83
2022/05/31 08:06:31;;;;;;;3.70;3.13;;;;;;;13.08;100.00;101533.94;4990587;28;20575;-84
2022/05/31 08:08:57;;;;;;;2.93;2.63;;;;;;;13.25;100.00;101536.28;4998902;28;20181;-84
2022/05/31 08:11:26;;;;;;;3.00;2.70;;;;;;;12.59;100.00;101443.34;4988028;28;20479;-84
2022/05/31 08:13:53;;;;;;;4.17;3.07;;;;;;;13.04;100.00;101535.34;4985476;28;20440;-83
2022/05/31 08:16:21;;;;;;;3.93;3.27;;;;;;;12.96;100.00;101511.28;4983027;28;20559;-76
2022/05/31 08:18:48;;;;;;;3.23;2.77;;;;;;;13.29;100.00;101516.88;4987871;28;20448;-84
2022/05/31 08:21:27;;;;;;;4.13;2.90;;;;;;;13.22;100.00;101490.88;4990152;28;21035;-84
2022/05/31 08:23:56;;;;;;;3.73;3.07;;;;;;;13.60;100.00;101520.09;4984068;28;20451;-85
2022/05/31 08:26:22;;;;;;;3.90;2.93;;;;;;;12.99;100.00;101392.41;4988376;28;20443;-83
2022/05/31 08:28:47;;;;;;;2.00;1.90;;;;;;;13.22;100.00;101410.94;4985388;28;20440;-82
2022/05/31 08:31:18;;;;;;;4.10;2.57;;;;;;;13.21;100.00;101403.03;4982469;28;20213;-83
2022/05/31 08:33:43;;;;;;;2.60;2.40;;;;;;;13.45;100.00;101421.38;4985553;28;20185;-81
2022/05/31 08:36:09;;;;;;;2.90;2.23;;;;;;;13.16;100.00;101392.84;4987477;28;20468;-83
2022/05/31 08:38:34;;;;;;;3.37;2.20;;;;;;;13.34;100.00;101412.03;4989491;28;20567;-83
2022/05/31 08:41:33;;;;;;;2.70;2.50;;;;;;;14.04;100.00;101498.03;4952567;23;20790;-75
2022/05/31 08:44:27;;;;;;;3.40;2.37;;;;;;;13.66;100.00;101401.53;4937925;28;20582;-76
2022/05/31 08:46:59;;;;;;;3.03;2.40;;;;;;;14.23;100.00;101501.75;4939287;28;21066;-76
2022/05/31 08:52:47;;;;;;;1.67;1.57;;;;;;;14.43;100.00;101499.06;4939757;28;20554;-76
2022/05/31 08:58:13;;;;;;;1.60;1.50;;;;;;;14.40;100.00;101459.00;4942966;28;20899;-76
2022/05/31 09:00:42;;;;;;;1.97;1.60;;;;;;;14.62;100.00;101497.44;4928813;28;20462;-76
2022/05/31 09:03:16;;;;;;;1.30;1.20;;;;;;;14.62;100.00;101486.63;4942182;28;20537;-76
2022/05/31 09:05:45;;;;;;;1.63;1.10;;;;;;;14.08;100.00;101377.88;4942288;28;20426;-76
2022/05/31 09:08:38;;;;;;;4.60;2.10;;;;;;;14.64;100.00;101485.38;4940000;28;20438;-76
2022/05/31 09:11:12;;;;;;;1.63;1.53;;;;;;;14.60;100.00;101472.50;4928363;29;20470;-76
2022/05/31 09:13:49;;;;;;;1.87;1.60;;;;;;;14.78;100.00;101480.81;4940612;28;20438;-76
2022/05/31 09:16:33;;;;;;;3.07;1.70;;;;;;;14.86;100.00;101474.31;4942310;29;20466;-76
2022/05/31 09:19:03;;;;;;;2.10;1.90;;;;;;;14.50;100.00;101439.69;4939130;28;20474;-76
2022/05/31 09:21:42;;;;;;;1.77;1.17;;;;;;;14.55;100.00;101431.81;4943437;29;20911;-76
2022/05/31 09:24:11;;;;;;;2.03;1.47;;;;;;;14.35;100.00;101410.22;4942450;29;20443;-76
2022/05/31 09:26:52;;;;;;;3.93;2.13;;;;;;;14.69;100.00;101472.09;4941355;29;20514;-77
2022/05/31 09:29:48;;;;;;;1.90;1.77;;;;;;;14.67;100.00;101474.16;4941447;29;20457;-77
2022/05/31 09:32:38;;;;;;;3.70;1.57;;;;;;;14.87;100.00;101455.22;4918628;29;20835;-77
2022/05/31 09:35:18;;;;;;;1.27;1.17;;;;;;;15.17;100.00;101470.09;4936573;29;20502;-78
2022/05/31 09:38:08;;;;;;;1.90;1.70;;;;;;;15.21;100.00;101464.03;4940532;28;20431;-78
2022/05/31 09:41:06;;;;;;;2.00;1.37;;;;;;;15.24;100.00;101443.84;4940159;28;20462;-77
2022/05/31 09:43:53;;;;;;;4.53;2.20;;;;;;;14.89;100.00;101427.97;4941499;29;20477;-77
2022/05/31 09:46:52;;;;;;;3.20;1.80;;;;;;;15.27;100.00;101456.94;4927508;29;20557;-76
2022/05/31 09:49:26;;;;;;;1.90;1.30;;;;;;;15.32;100.00;101462.53;4944425;28;20466;-80
2022/05/31 09:51:52;;;;;;;3.37;1.90;;;;;;;15.37;100.00;101454.63;4939265;28;20462;-78
2022/05/31 09:57:07;;;;;;;2.53;1.90;;;;;;;15.05;100.00;101443.72;4942581;28;20195;-76
2022/05/31 09:59:43;;;;;;;3.00;1.83;;;;;;;15.24;100.00;101420.34;4940654;28;20463;-77
2022/05/31 10:02:24;;;;;;;7.23;1.87;;;;;;;15.55;100.00;101448.47;4941365;29;20501;-76
2022/05/31 10:05:04;;;;;;;3.17;2.20;;;;;;;15.57;100.00;101458.03;4942118;29;20557;-78
2022/05/31 10:07:33;;;;;;;3.10;1.90;;;;;;;15.56;100.00;101458.25;4924126;29;20884;-77
2022/05/31 10:10:08;;;;;;;2.73;2.07;;;;;;;14.96;100.00;101319.94;4941828;28;20462;-77
2022/05/31 10:12:34;;;;;;;2.90;2.20;;;;;;;15.26;100.00;101390.44;4943591;29;20446;-77
2022/05/31 10:15:03;;;;;;;3.10;2.73;;;;;;;15.38;100.00;101448.16;4944172;29;20467;-76
2022/05/31 10:17:37;;;;;;;4.87;2.63;;;;;;;15.76;100.00;101441.94;4945302;29;20981;-76
2022/05/31 10:20:15;;;;;;;3.27;2.63;;;;;;;15.76;100.00;101434.63;4927916;29;20498;-77
2022/05/31 10:22:56;;;;;;;4.63;2.20;;;;;;;15.70;100.00;101394.94;4933356;29;21164;-77
2022/05/31 10:25:42;;;;;;;1.90;1.60;;;;;;;16.33;100.00;101423.78;4943936;28;20434;-77
2022/05/31 10:28:40;;;;;;;2.17;1.97;;;;;;;16.17;100.00;101403.53;4943987;29;20444;-77
2022/05/31 10:31:27;;;;;;;2.50;1.73;;;;;;;16.23;100.00;101426.19;4945217;29;20839;-77
2022/05/31 10:33:58;;;;;;;3.93;2.50;;;;;;;15.86;100.00;101406.28;4944175;29;20942;-77
2022/05/31 10:36:27;;;;;;;2.47;1.80;;;;;;;15.99;100.00;101425.94;4942322;29;20473;-76
2022/05/31 10:38:53;;;;;;;2.37;2.17;;;;;;;16.08;100.00;101426.50;4942197;28;20461;-77
2022/05/31 10:41:39;;;;;;;2.33;2.10;;;;;;;16.10;100.00;101415.47;4942821;29;20450;-77
2022/05/31 10:44:35;;;;;;;1.60;1.50;;;;;;;16.33;100.00;101418.38;4941830;28;20457;-76
2022/05/31 10:47:13;;;;;;;3.37;1.80;;;;;;;16.41;100.00;101409.97;4926886;29;20438;-76
2022/05/31 10:49:40;;;;;;;1.90;1.80;;;;;;;16.48;100.00;101409.88;4940505;29;20547;-77
2022/05/31 10:52:55;;;;;;;1.60;1.50;;;;;;;16.55;100.00;101417.94;4941917;29;20442;-76
2022/05/31 10:55:34;;;;;;;1.80;1.60;;;;;;;16.59;100.00;101411.03;4903636;28;20479;-75
2022/05/31 10:58:25;;;;;;;4.27;2.23;;;;;;;15.85;100.00;101361.34;4942194;29;20434;-75
2022/05/31 11:00:57;;;;;;;2.57;1.60;;;;;;;16.38;100.00;101406.88;4942866;29;20462;-76
2022/05/31 11:03:26;;;;;;;2.30;1.33;;;;;;;16.61;100.00;101403.53;4925562;29;20432;-76
2022/05/31 11:06:19;;;;;;;3.50;2.33;;;;;;;16.08;100.00;101364.25;4932348;29;20589;-77
2022/05/31 11:12:05;;;;;;;2.90;1.90;;;;;;;16.41;100.00;101393.72;4939421;29;20866;-77
2022/05/31 11:14:44;;;;;;;3.30;1.80;;;;;;;16.38;100.00;101388.75;4939702;29;20458;-77
2022/05/31 11:17:24;;;;;;;3.20;1.60;;;;;;;16.46;100.00;101402.00;4941189;29;20453;-77
2022/05/31 11:20:02;;;;;;;1.40;1.20;;;;;;;16.32;100.00;101356.34;4937333;28;20516;-77
2022/05/31 11:22:39;;;;;;;1.70;1.40;;;;;;;16.74;100.00;101397.94;4936436;28;20530;-77
2022/05/31 11:25:17;;;;;;;2.40;1.80;;;;;;;16.49;100.00;101376.34;4942240;29;20430;-76
2022/05/31 11:28:25;;;;;;;2.07;1.80;;;;;;;15.88;100.00;101325.72;4941837;29;20446;-77
2022/05/31 11:30:56;;;;;;;3.03;1.77;;;;;;;16.32;100.00;101405.88;4939805;29;20486;-77
2022/05/31 11:33:59;;;;;;;3.07;1.77;;;;;;;16.17;100.00;101403.53;4942361;29;20435;-76
2022/05/31 11:36:43;;;;;;;2.20;1.60;;;;;;;16.32;100.00;101400.47;4940899;29;20472;-78
2022/05/31 11:39:31;;;;;;;2.07;1.57;;;;;;;15.98;100.00;101342.28;4938782;28;20498;-77
2022/05/31 11:42:18;;;;;;;2.47;1.87;;;;;;;16.55;100.00;101401.69;4942781;29;20430;-76
2022/05/31 11:45:08;;;;;;;2.30;1.60;;;;;;;16.55;100.00;101402.53;4925000;29;20438;-77
2022/05/31 11:47:51;;;;;;;2.90;1.60;;;;;;;16.62;100.00;101397.84;4942410;29;20438;-76
2022/05/31 11:50:22;;;;;;;1.40;1.30;;;;;;;16.86;100.00;101396.16;4940603;28;20488;-77
2022/05/31 11:53:03;;;;;;;1.83;1.50;;;;;;;16.66;100.00;101387.41;4941902;29;20435;-76
2022/05/31 11:55:46;;;;;;;2.00;1.30;;;;;;;16.86;100.00;101381.78;4920296;29;20848;-76
2022/05/31 11:58:27;;;;;;;1.30;1.20;;;;;;;17.05;100.00;101383.41;4941341;29;20431;-76
2022/05/31 12:01:11;;;;;;;1.87;1.23;;;;;;;17.23;100.00;101387.97;4936237;28;20473;-76